createdAt,value
2024-01-11T00:04:04.043Z,-7.48
2024-01-11T00:09:06.938Z,-7.44
2024-01-11T00:14:08.799Z,-7.76
2024-01-11T00:19:10.409Z,-7.71
2024-01-11T00:24:13.349Z,-7.87
2024-01-11T00:29:15.115Z,-7.70
2024-01-11T00:34:16.719Z,-7.87
2024-01-11T00:39:19.669Z,-7.87
2024-01-11T00:44:21.249Z,-7.72
2024-01-11T00:49:22.938Z,-7.67
2024-01-11T00:54:25.889Z,-7.80
2024-01-11T00:59:27.491Z,-7.56
2024-01-11T01:04:29.149Z,-7.75
2024-01-11T01:09:32.328Z,-7.51
2024-01-11T01:14:34.092Z,-7.68
2024-01-11T01:19:35.882Z,-7.65
2024-01-11T01:24:38.882Z,-7.75
2024-01-11T01:29:40.568Z,-7.74
2024-01-11T01:34:42.144Z,-7.62
2024-01-11T01:39:45.037Z,-7.54
2024-01-11T01:44:46.666Z,-7.59
2024-01-11T01:49:50.238Z,-7.61
2024-01-11T01:54:53.780Z,-7.59
2024-01-11T01:59:55.567Z,-7.58
2024-01-11T02:04:57.902Z,-7.67
2024-01-11T02:10:00.907Z,-7.71
2024-01-11T02:15:02.627Z,-7.65
2024-01-11T02:20:04.930Z,-7.80
2024-01-11T02:25:08.366Z,-7.77
2024-01-11T02:30:11.115Z,-7.65
2024-01-11T02:35:13.666Z,-7.64
2024-01-11T02:40:16.727Z,-7.60
2024-01-11T02:45:18.260Z,-7.62
2024-01-11T02:50:19.864Z,-7.60
2024-01-11T02:55:22.886Z,-7.69
2024-01-11T03:00:24.418Z,-7.70
2024-01-11T03:05:26.044Z,-7.70
2024-01-11T03:10:28.993Z,-7.69
2024-01-11T03:15:30.492Z,-7.65
2024-01-11T03:20:32.116Z,-7.71
2024-01-11T03:25:34.969Z,-7.80
2024-01-11T03:30:36.684Z,-7.85
2024-01-11T03:35:38.512Z,-7.88
2024-01-11T03:40:41.494Z,-7.87
2024-01-11T03:45:42.979Z,-7.91
2024-01-11T03:50:44.618Z,-7.89
2024-01-11T03:55:47.542Z,-7.91
2024-01-11T04:00:49.165Z,-7.91
2024-01-11T04:05:50.851Z,-7.86
2024-01-11T04:10:53.780Z,-7.87
2024-01-11T04:15:55.376Z,-7.84
2024-01-11T04:20:56.928Z,-7.84
2024-01-11T04:25:59.888Z,-7.81
2024-01-11T04:31:01.508Z,-7.84
2024-01-11T04:36:03.444Z,-7.79
2024-01-11T04:41:09.763Z,-7.76
2024-01-11T04:46:15.389Z,-7.76
2024-01-11T04:51:18.509Z,-7.84
2024-01-11T04:56:21.670Z,-7.79
2024-01-11T05:01:23.289Z,-7.77
2024-01-11T05:06:24.838Z,-7.83
2024-01-11T05:11:27.945Z,-7.80
2024-01-11T05:16:29.873Z,-7.87
2024-01-11T05:21:31.502Z,-7.85
2024-01-11T05:26:34.468Z,-7.77
2024-01-11T05:31:36.183Z,-7.91
2024-01-11T05:36:37.924Z,-7.95
2024-01-11T05:41:44.070Z,-7.93
2024-01-11T05:46:45.645Z,-7.95
2024-01-11T05:51:47.212Z,-7.96
2024-01-11T05:56:50.162Z,-8.01
2024-01-11T06:01:51.800Z,-8.03
2024-01-11T06:06:53.372Z,-8.08
2024-01-11T06:11:56.292Z,-8.05
2024-01-11T06:16:57.978Z,-8.05
2024-01-11T06:21:59.627Z,-7.99
2024-01-11T06:27:02.564Z,-8.06
2024-01-11T06:32:04.890Z,-8.05
2024-01-11T06:37:06.418Z,-8.10
2024-01-11T06:42:09.440Z,-8.08
2024-01-11T06:47:11.188Z,-8.13
2024-01-11T06:52:12.832Z,-8.10
2024-01-11T06:57:15.688Z,-8.16
2024-01-11T07:02:17.318Z,-8.10
2024-01-11T07:07:18.888Z,-8.16
2024-01-11T07:12:21.751Z,-8.17
2024-01-11T07:17:23.371Z,-8.13
2024-01-11T07:22:25.017Z,-8.14
2024-01-11T07:27:27.913Z,-8.17
2024-01-11T07:32:29.754Z,-8.07
2024-01-11T07:37:31.325Z,-8.04
2024-01-11T07:42:34.271Z,-8.02
2024-01-11T07:47:35.915Z,-7.99
2024-01-11T07:52:37.747Z,-7.98
2024-01-11T07:57:41.220Z,-7.92
2024-01-11T08:02:43.098Z,-7.77
2024-01-11T08:07:44.939Z,-7.75
2024-01-11T08:12:47.947Z,-7.74
2024-01-11T08:17:49.696Z,-7.72
2024-01-11T08:22:51.380Z,-7.69
2024-01-11T08:27:54.304Z,-7.66
2024-01-11T08:32:56.053Z,-7.54
2024-01-11T08:37:57.660Z,-7.50
2024-01-11T08:43:00.635Z,-7.55
2024-01-11T08:48:02.382Z,-7.52
2024-01-11T08:53:04.329Z,-7.52
2024-01-11T08:58:07.200Z,-7.41
2024-01-11T09:03:08.884Z,-7.34
2024-01-11T09:08:10.607Z,-7.36
2024-01-11T09:13:14.994Z,-7.25
2024-01-11T09:18:16.930Z,-7.26
2024-01-11T09:23:18.667Z,-7.24
2024-01-11T09:28:21.621Z,-7.00
2024-01-11T09:33:23.315Z,-7.06
2024-01-11T09:38:25.113Z,-7.00
2024-01-11T09:43:28.271Z,-6.85
2024-01-11T09:48:30.962Z,-6.81
2024-01-11T09:53:34.018Z,-6.89
2024-01-11T09:58:37.504Z,-6.86
2024-01-11T10:03:40.480Z,-6.77
2024-01-11T10:08:42.124Z,-6.44
2024-01-11T10:13:45.089Z,-6.50
2024-01-11T10:18:46.877Z,-6.13
2024-01-11T10:23:50.038Z,-5.99
2024-01-11T10:28:53.015Z,-6.11
2024-01-11T10:33:54.662Z,-5.98
2024-01-11T10:38:57.051Z,-5.95
2024-01-11T10:44:01.941Z,-5.88
2024-01-11T10:49:05.782Z,-5.78
2024-01-11T10:54:07.551Z,-5.81
2024-01-11T10:59:11.200Z,-5.54
2024-01-11T11:04:14.460Z,-5.62
2024-01-11T11:09:16.646Z,-5.62
2024-01-11T11:14:20.820Z,-5.43
2024-01-11T11:19:22.783Z,-5.36
2024-01-11T11:24:24.426Z,-5.25
2024-01-11T11:29:27.446Z,-5.29
2024-01-11T11:34:41.906Z,-5.12
2024-01-11T11:39:43.606Z,-5.04
2024-01-11T11:44:51.533Z,-4.97
2024-01-11T11:50:04.857Z,-4.77
2024-01-11T11:55:08.418Z,-4.65
2024-01-11T12:00:13.419Z,-4.55
2024-01-11T12:05:15.640Z,-4.41
2024-01-11T12:10:17.512Z,-4.32
2024-01-11T12:15:20.440Z,-4.28
2024-01-11T12:20:21.995Z,-4.14
2024-01-11T12:25:23.806Z,-4.08
2024-01-11T12:30:27.120Z,-3.85
2024-01-11T12:35:29.261Z,-3.74
2024-01-11T12:40:32.881Z,-3.86
2024-01-11T12:45:36.674Z,-3.83
2024-01-11T12:50:38.399Z,-3.75
2024-01-11T12:55:48.327Z,-3.56
2024-01-11T13:00:57.890Z,-3.43
2024-01-11T13:05:59.512Z,-3.33
2024-01-11T13:11:01.164Z,-3.41
2024-01-11T13:16:04.637Z,-3.41
2024-01-11T13:21:06.650Z,-3.46
2024-01-11T13:26:08.584Z,-3.22
2024-01-11T13:31:11.662Z,-3.11
2024-01-11T13:36:13.358Z,-3.08
2024-01-11T13:41:15.029Z,-3.29
2024-01-11T13:46:18.045Z,-3.35
2024-01-11T13:51:19.758Z,-3.38
2024-01-11T13:56:21.510Z,-3.44
2024-01-11T14:01:24.566Z,-3.45
2024-01-11T14:06:26.227Z,-3.46
2024-01-11T14:11:27.954Z,-3.40
2024-01-11T14:16:30.875Z,-3.35
2024-01-11T14:21:32.406Z,-3.39
2024-01-11T14:26:34.034Z,-3.42
2024-01-11T14:31:37.000Z,-3.44
2024-01-11T14:36:38.772Z,-3.47
2024-01-11T14:41:40.395Z,-3.39
2024-01-11T14:46:43.373Z,-3.36
2024-01-11T14:51:44.973Z,-3.49
2024-01-11T14:56:47.258Z,-3.36
2024-01-11T15:01:50.384Z,-3.28
2024-01-11T15:06:51.944Z,-3.23
2024-01-11T15:11:53.716Z,-3.24
2024-01-11T15:16:56.782Z,-3.25
2024-01-11T15:21:58.372Z,-3.29
2024-01-11T15:26:59.962Z,-3.34
2024-01-11T15:32:02.916Z,-3.39
2024-01-11T15:37:04.906Z,-3.52
2024-01-11T15:42:06.627Z,-3.70
2024-01-11T15:47:09.568Z,-3.75
2024-01-11T15:52:11.142Z,-3.82
2024-01-11T15:57:13.221Z,-3.90
2024-01-11T16:02:16.857Z,-3.96
2024-01-11T16:07:18.500Z,-4.03
2024-01-11T16:12:20.046Z,-4.02
2024-01-11T16:17:22.988Z,-4.09
2024-01-11T16:22:24.686Z,-4.46
2024-01-11T16:27:26.318Z,-5.00
2024-01-11T16:32:29.250Z,-5.03
2024-01-11T16:37:30.834Z,-4.99
2024-01-11T16:42:33.105Z,-4.77
2024-01-11T16:47:36.377Z,-4.70
2024-01-11T16:52:38.258Z,-4.73
2024-01-11T16:57:39.772Z,-4.79
2024-01-11T17:02:42.817Z,-4.79
2024-01-11T17:07:44.499Z,-4.80
2024-01-11T17:12:46.069Z,-4.89
2024-01-11T17:17:49.219Z,-4.88
2024-01-11T17:22:52.332Z,-4.83
2024-01-11T17:27:54.577Z,-4.98
2024-01-11T17:32:57.574Z,-5.25
2024-01-11T17:37:59.226Z,-5.34
2024-01-11T17:43:00.761Z,-5.26
2024-01-11T17:48:04.288Z,-5.28
2024-01-11T17:53:05.923Z,-5.18
2024-01-11T17:58:07.596Z,-5.17
2024-01-11T18:03:10.480Z,-5.13
2024-01-11T18:08:12.088Z,-5.18
2024-01-11T18:13:13.733Z,-5.25
2024-01-11T18:18:16.744Z,-5.24
2024-01-11T18:23:18.470Z,-5.18
2024-01-11T18:28:20.378Z,-5.30
2024-01-11T18:33:24.786Z,-5.22
2024-01-11T18:38:26.478Z,-5.46
2024-01-11T18:43:28.080Z,-5.43
2024-01-11T18:48:31.123Z,-5.40
2024-01-11T18:53:32.793Z,-5.41
2024-01-11T18:58:34.366Z,-5.42
2024-01-11T19:03:37.615Z,-5.45
2024-01-11T19:08:39.228Z,-5.38
2024-01-11T19:13:40.906Z,-5.40
2024-01-11T19:18:44.043Z,-5.50
2024-01-11T19:23:45.811Z,-5.40
2024-01-11T19:28:47.397Z,-5.42
2024-01-11T19:33:50.402Z,-5.40
2024-01-11T19:38:52.148Z,-5.59
2024-01-11T19:43:53.810Z,-5.91
2024-01-11T19:48:56.923Z,-5.78
2024-01-11T19:53:58.621Z,-6.12
2024-01-11T19:59:00.292Z,-6.17
2024-01-11T20:04:03.807Z,-5.91
2024-01-11T20:09:05.415Z,-5.82
2024-01-11T20:14:07.046Z,-5.70
2024-01-11T20:19:10.144Z,-5.62
2024-01-11T20:24:11.872Z,-5.67
2024-01-11T20:29:13.460Z,-5.65
2024-01-11T20:34:16.483Z,-5.63
2024-01-11T20:39:18.254Z,-5.64
2024-01-11T20:44:19.951Z,-5.68
2024-01-11T20:49:22.980Z,-5.72
2024-01-11T20:54:24.611Z,-5.70
2024-01-11T20:59:26.300Z,-5.66
2024-01-11T21:04:29.253Z,-5.62
2024-01-11T21:09:31.231Z,-5.65
2024-01-11T21:14:32.891Z,-5.62
2024-01-11T21:19:35.983Z,-5.67
2024-01-11T21:24:37.660Z,-5.74
2024-01-11T21:29:39.408Z,-5.71
2024-01-11T21:34:42.409Z,-5.69
2024-01-11T21:39:44.054Z,-5.68
2024-01-11T21:44:45.761Z,-5.97
2024-01-11T21:49:49.599Z,-5.89
2024-01-11T21:54:51.263Z,-5.88
2024-01-11T21:59:52.981Z,-5.87
2024-01-11T22:04:55.913Z,-5.86
2024-01-11T22:09:57.492Z,-5.67
2024-01-11T22:14:59.914Z,-5.62
2024-01-11T22:20:03.194Z,-5.75
2024-01-11T22:25:05.619Z,-5.69
2024-01-11T22:30:08.321Z,-5.63
2024-01-11T22:35:11.934Z,-5.59
2024-01-11T22:40:13.687Z,-5.69
2024-01-11T22:45:15.346Z,-5.73
2024-01-11T22:50:18.278Z,-5.69
2024-01-11T22:55:19.902Z,-5.68
2024-01-11T23:00:22.148Z,-5.73
2024-01-11T23:05:25.446Z,-5.80
2024-01-11T23:10:27.053Z,-5.96
2024-01-11T23:15:28.602Z,-5.92
2024-01-11T23:20:32.656Z,-6.01
2024-01-11T23:25:34.332Z,-6.02
2024-01-11T23:30:36.048Z,-5.92
2024-01-11T23:35:39.583Z,-5.88
2024-01-11T23:40:41.278Z,-5.82
2024-01-11T23:45:42.889Z,-5.65
2024-01-11T23:50:45.864Z,-5.57
2024-01-11T23:55:47.821Z,-5.54
